Time;durP1;ratioP1;P1;durP2;ratioP2;P2;SDS_P1;SDS_P2;PMS_P1;PMS_P2;Temp;Humidity;BMP_temperature;BMP_pressure;BME280_temperature;BME280_humidity;BME280_pressure;Samples;Min_cycle;Max_cycle;Signal;HPM_P1;HPM_P2
2022/04/08 00:00:14;;;;;;;0.2;0.2;;;;;;;10.43;86.90234;923.1595;;;;
2022/04/08 00:02:44;;;;;;;3.7;2.3;;;;;;;10.43;87.42676;923.368;;;;
2022/04/08 00:05:16;;;;;;;2.3;1.8;;;;;;;10.32;89.08301;923.3104;;;;
2022/04/08 00:07:45;;;;;;;1.6;1.2;;;;;;;10.34;89.42871;923.342;;;;
2022/04/08 00:10:19;;;;;;;2.9;2;;;;;;;10.33;90.21289;923.2109;;;;
2022/04/08 00:12:46;;;;;;;2.1;1.3;;;;;;;10.14;88.84961;923.2662;;;;
2022/04/08 00:15:11;;;;;;;0.5;0.5;;;;;;;9.8;90.34277;923.2819;;;;
2022/04/08 00:17:41;;;;;;;0.3;0.3;;;;;;;9.97;89.375;923.1608;;;;
2022/04/08 00:20:11;;;;;;;1.6;0.5;;;;;;;10.04;88.29492;923.243;;;;
2022/04/08 00:22:38;;;;;;;0.7;0.3;;;;;;;10.13;87.69531;923.2569;;;;
2022/04/08 00:25:01;;;;;;;1.6;0.4;;;;;;;10.2;87.10547;923.4077;;;;
2022/04/08 00:27:32;;;;;;;1.9;1.3;;;;;;;10.21;87.65527;923.4716;;;;
2022/04/08 00:29:59;;;;;;;3.1;2.7;;;;;;;10.12;88.40332;923.4828;;;;
2022/04/08 00:32:26;;;;;;;2.5;1.9;;;;;;;10.04;88.47559;923.5776;;;;
2022/04/08 00:34:54;;;;;;;1.3;1.2;;;;;;;10.06;88.66406;923.6394;;;;
2022/04/08 00:37:19;;;;;;;1.6;1.4;;;;;;;10.01;89.16797;923.6989;;;;
2022/04/08 00:39:44;;;;;;;1.3;0.7;;;;;;;9.99;89.07129;923.6257;;;;
2022/04/08 00:42:15;;;;;;;0.4;0.4;;;;;;;10.02;87.94727;923.5524;;;;
2022/04/08 00:44:43;;;;;;;0.4;0.2;;;;;;;9.93;86.6748;923.6232;;;;
2022/04/08 00:47:11;;;;;;;1.3;0.3;;;;;;;9.81;86.30762;923.7039;;;;
2022/04/08 00:49:39;;;;;;;0.1;0.1;;;;;;;9.84;87.66016;923.6514;;;;
2022/04/08 00:52:10;;;;;;;1;0.8;;;;;;;10.1;87.90723;923.6883;;;;
2022/04/08 00:54:41;;;;;;;0.6;0.4;;;;;;;9.89;89.11914;923.778;;;;
2022/04/08 00:57:10;;;;;;;0.9;0.6;;;;;;;9.63;89.79199;923.791;;;;
2022/04/08 08:46:03;;;;;;;0.3;0.3;;;;;;;20.36;43.35742;923.562;;;;
2022/04/08 08:48:33;;;;;;;0.6;0.2;;;;;;;19.15;47.18555;923.5611;;;;
2022/04/08 08:51:03;;;;;;;0.3;0.2;;;;;;;17.53;49.91309;923.5541;;;;
2022/04/08 08:53:34;;;;;;;0.9;0.7;;;;;;;16.71;53.58496;923.4276;;;;
2022/04/08 08:56:02;;;;;;;0.2;0.2;;;;;;;17.45;53.89453;923.4144;;;;
2022/04/08 08:58:28;;;;;;;0.4;0.2;;;;;;;18.92;47.54492;923.4213;;;;
2022/04/08 09:01:00;;;;;;;0.3;0.3;;;;;;;19.29;45.38379;923.4108;;;;
2022/04/08 09:03:29;;;;;;;0.2;0.2;;;;;;;19.96;44.93945;923.375;;;;
2022/04/08 09:06:00;;;;;;;0.2;0.2;;;;;;;20.6;43.5791;923.3272;;;;
2022/04/08 09:08:33;;;;;;;0.6;0.2;;;;;;;21.11;43.46582;923.207;;;;
2022/04/08 09:10:59;;;;;;;0.5;0.3;;;;;;;21.07;44.10547;923.0458;;;;
2022/04/08 09:13:24;;;;;;;0.2;0.2;;;;;;;21.91;40.53223;923.1691;;;;
2022/04/08 09:15:49;;;;;;;0.5;0.3;;;;;;;21.86;42.69531;923.116;;;;
2022/04/08 09:18:14;;;;;;;0.5;0.2;;;;;;;21.08;43.20508;923.0339;;;;
2022/04/08 09:20:46;;;;;;;0.2;0.2;;;;;;;21.6;40.77344;922.9278;;;;
2022/04/08 09:23:11;;;;;;;0.2;0.2;;;;;;;20.79;43.38672;922.9055;;;;
2022/04/08 09:26:42;;;;;;;0.1;0.1;;;;;;;20.77;42.91797;922.9014;;;;
2022/04/08 09:29:13;;;;;;;0.2;0.2;;;;;;;20.14;44.38574;922.8061;;;;
2022/04/08 09:31:47;;;;;;;0.1;0.1;;;;;;;20.25;43.77734;922.7394;;;;
2022/04/08 09:34:22;;;;;;;0.2;0.2;;;;;;;20.01;43.43848;922.6487;;;;
2022/04/08 09:36:47;;;;;;;0.7;0.2;;;;;;;20.08;45.78027;922.7132;;;;
2022/04/08 09:39:18;;;;;;;0.5;0.3;;;;;;;20.03;47.68848;922.6214;;;;
2022/04/08 09:41:48;;;;;;;0.2;0.2;;;;;;;20.72;45.27344;922.5978;;;;
2022/04/08 09:44:16;;;;;;;0.2;0.2;;;;;;;20.21;45.34961;922.5195;;;;
2022/04/08 09:46:40;;;;;;;0.2;0.2;;;;;;;18.9;47.20508;922.5222;;;;
2022/04/08 09:49:10;;;;;;;0.2;0.1;;;;;;;18.79;48.9043;922.489;;;;
2022/04/08 09:51:41;;;;;;;0.1;0.1;;;;;;;18.22;49.00391;922.4597;;;;
2022/04/08 09:54:08;;;;;;;0.4;0.4;;;;;;;17.93;48.71582;922.4224;;;;
2022/04/08 09:56:37;;;;;;;0.2;0.2;;;;;;;18.13;49.46973;922.4395;;;;
2022/04/08 09:59:08;;;;;;;1.5;0.2;;;;;;;18.83;47.9082;922.3109;;;;
2022/04/08 10:01:36;;;;;;;0.3;0.3;;;;;;;18.74;47.35156;922.294;;;;
2022/04/08 10:04:15;;;;;;;1.4;0.3;;;;;;;18.25;49.59961;922.3513;;;;
2022/04/08 10:06:45;;;;;;;0.3;0.2;;;;;;;18.29;47.88379;922.2578;;;;
2022/04/08 10:09:14;;;;;;;0.3;0.2;;;;;;;17.76;48.83691;922.2442;;;;
2022/04/08 10:11:40;;;;;;;1.1;0.4;;;;;;;17.06;54.32031;922.2963;;;;
2022/04/08 10:14:06;;;;;;;0.7;0.4;;;;;;;17.41;50.3291;922.2392;;;;
2022/04/08 10:16:33;;;;;;;0.7;0.3;;;;;;;17.1;50.91895;922.2296;;;;
2022/04/08 10:19:04;;;;;;;0.4;0.4;;;;;;;16.85;53.46191;922.2587;;;;
2022/04/08 10:21:23;;;;;;;1;0.3;;;;;;;16.88;53.59277;922.2267;;;;
2022/04/08 10:23:48;;;;;;;0.2;0.2;;;;;;;16.87;53.95117;922.1683;;;;
2022/04/08 10:26:15;;;;;;;1.1;0.4;;;;;;;16.95;53.4043;922.1951;;;;
2022/04/08 10:28:41;;;;;;;0.2;0.2;;;;;;;16.87;53.25586;922.0167;;;;
2022/04/08 10:31:09;;;;;;;0.3;0.3;;;;;;;16.99;53.3623;922.0262;;;;
2022/04/08 10:33:34;;;;;;;0.2;0.2;;;;;;;17.52;51.8252;921.8777;;;;
2022/04/08 10:35:59;;;;;;;0.2;0.2;;;;;;;17.22;53.41406;921.8265;;;;
2022/04/08 10:38:29;;;;;;;0.6;0.3;;;;;;;16.94;53.28613;921.9093;;;;
2022/04/08 10:40:58;;;;;;;0.3;0.3;;;;;;;17.06;52.31641;921.808;;;;
2022/04/08 10:43:23;;;;;;;0.2;0.2;;;;;;;17.01;52.28711;921.7866;;;;
2022/04/08 10:45:53;;;;;;;0.2;0.2;;;;;;;16.95;52.59277;921.6348;;;;
2022/04/08 10:48:18;;;;;;;0.3;0.3;;;;;;;16.76;52.84863;921.7498;;;;
2022/04/08 10:50:43;;;;;;;0.4;0.4;;;;;;;17.13;53.10059;921.6267;;;;
2022/04/08 10:53:13;;;;;;;0.5;0.4;;;;;;;17.77;51.36816;921.552;;;;
2022/04/08 10:55:42;;;;;;;0.7;0.4;;;;;;;18.24;49.74902;921.6172;;;;
2022/04/08 10:58:08;;;;;;;0.7;0.3;;;;;;;18.5;47.65039;921.6245;;;;
2022/04/08 11:00:33;;;;;;;1.2;0.3;;;;;;;18.27;47.5332;921.5916;;;;
2022/04/08 11:03:03;;;;;;;0.4;0.3;;;;;;;17.81;48.62109;921.5061;;;;
2022/04/08 11:05:33;;;;;;;0.9;0.3;;;;;;;16.6;54.26465;921.6016;;;;
2022/04/08 11:07:58;;;;;;;0.2;0.2;;;;;;;17.11;52.48438;921.4169;;;;
2022/04/08 11:10:31;;;;;;;0.3;0.3;;;;;;;16.73;52.86719;921.4762;;;;
2022/04/08 11:12:54;;;;;;;0.6;0.4;;;;;;;17.23;51.80273;921.3147;;;;
2022/04/08 11:15:32;;;;;;;0.3;0.3;;;;;;;17.58;50.87012;921.2288;;;;
2022/04/08 11:18:03;;;;;;;0.3;0.3;;;;;;;16.76;51.48242;921.3247;;;;
2022/04/08 11:20:28;;;;;;;1.3;0.4;;;;;;;16.76;53.63672;921.1912;;;;
2022/04/08 11:22:58;;;;;;;0.4;0.3;;;;;;;16.9;52.29785;921.1527;;;;
2022/04/08 11:25:23;;;;;;;0.5;0.5;;;;;;;17.04;56.05762;921.1647;;;;
2022/04/08 11:27:48;;;;;;;0.6;0.5;;;;;;;17.2;56.93555;921.1186;;;;
2022/04/08 11:30:19;;;;;;;0.7;0.4;;;;;;;16.73;53.64453;921.0878;;;;
2022/04/08 11:32:48;;;;;;;1.4;0.7;;;;;;;17;56.38867;921.0891;;;;
2022/04/08 11:35:13;;;;;;;1.7;0.6;;;;;;;16.55;56.41113;921.1262;;;;
2022/04/08 11:37:45;;;;;;;2.2;0.6;;;;;;;16.25;58.44336;921.0739;;;;
2022/04/08 11:40:10;;;;;;;2.4;0.6;;;;;;;16.29;58.08984;921.0359;;;;
2022/04/08 11:42:40;;;;;;;0.8;0.5;;;;;;;15.74;57.64746;920.9364;;;;
2022/04/08 11:45:09;;;;;;;4.4;0.8;;;;;;;15.37;60.54395;920.9509;;;;
2022/04/08 11:47:40;;;;;;;1.2;0.9;;;;;;;15.31;58.31934;920.88;;;;
2022/04/08 11:50:13;;;;;;;0.3;0.3;;;;;;;16.27;57.89063;920.7903;;;;
2022/04/08 11:52:45;;;;;;;0.6;0.5;;;;;;;16.34;57.81934;920.65;;;;
2022/04/08 11:55:16;;;;;;;2;0.7;;;;;;;16.72;58.99316;920.522;;;;
2022/04/08 11:57:44;;;;;;;1.3;0.5;;;;;;;16.62;56.84863;920.4839;;;;
2022/04/08 12:00:09;;;;;;;2;0.4;;;;;;;17.04;53.98242;920.38;;;;
2022/04/08 12:02:38;;;;;;;0.4;0.4;;;;;;;17.97;55.03906;920.2954;;;;
2022/04/08 12:05:03;;;;;;;2.2;0.5;;;;;;;18.3;53.27734;920.2419;;;;
2022/04/08 12:07:30;;;;;;;3.5;0.8;;;;;;;18.2;53.40527;920.1571;;;;
2022/04/08 12:09:58;;;;;;;1.4;0.5;;;;;;;18.43;51.79297;920.1177;;;;
2022/04/08 12:12:24;;;;;;;0.6;0.5;;;;;;;18.53;51.41113;920.0098;;;;
2022/04/08 12:14:52;;;;;;;0.8;0.3;;;;;;;18.86;49.99414;919.991;;;;
2022/04/08 12:17:17;;;;;;;0.4;0.3;;;;;;;19.1;48.57715;919.9458;;;;
2022/04/08 12:19:48;;;;;;;1.7;0.5;;;;;;;18.97;52.31152;919.9869;;;;
2022/04/08 12:22:19;;;;;;;1;0.4;;;;;;;18.45;49.44824;919.7689;;;;
2022/04/08 12:24:44;;;;;;;3.9;0.7;;;;;;;17.77;52.4707;919.856;;;;
2022/04/08 12:27:13;;;;;;;2;0.6;;;;;;;17.24;53.54297;919.7941;;;;
2022/04/08 12:29:45;;;;;;;0.9;0.4;;;;;;;17.52;54.43652;919.6547;;;;
2022/04/08 12:32:09;;;;;;;2.9;0.4;;;;;;;17.59;52.37891;919.5573;;;;
2022/04/08 12:34:40;;;;;;;5.3;2.3;;;;;;;18.45;52.11035;919.5258;;;;
2022/04/08 12:37:09;;;;;;;0.7;0.5;;;;;;;18.42;49.69922;919.4973;;;;
2022/04/08 12:39:34;;;;;;;2.1;0.8;;;;;;;18.47;50.86816;919.4578;;;;
2022/04/08 12:41:59;;;;;;;0.8;0.5;;;;;;;18.42;49.81738;919.295;;;;
2022/04/08 12:44:29;;;;;;;0.7;0.5;;;;;;;18.99;50.55664;919.1975;;;;
2022/04/08 12:47:01;;;;;;;0.9;0.6;;;;;;;19.98;46.66797;919.0186;;;;
2022/04/08 12:49:26;;;;;;;1.9;0.9;;;;;;;20.86;43.66309;918.9802;;;;
2022/04/08 12:51:56;;;;;;;0.5;0.5;;;;;;;21.5;44.18164;918.9208;;;;
2022/04/08 12:54:25;;;;;;;0.7;0.5;;;;;;;21.79;42.99219;918.8776;;;;
2022/04/08 12:56:50;;;;;;;1.4;0.6;;;;;;;21.79;42.95801;918.8276;;;;
2022/04/08 12:59:17;;;;;;;0.6;0.4;;;;;;;21.79;42.87598;918.8206;;;;
2022/04/08 13:01:42;;;;;;;0.4;0.4;;;;;;;21.9;42.51172;918.8697;;;;
2022/04/08 13:04:11;;;;;;;0.3;0.3;;;;;;;21.77;41.32715;918.7395;;;;
2022/04/08 13:06:36;;;;;;;0.8;0.5;;;;;;;21.82;42.78516;918.6397;;;;
2022/04/08 13:09:07;;;;;;;2.6;0.6;;;;;;;21.22;44.64648;918.5561;;;;
2022/04/08 13:11:33;;;;;;;0.6;0.5;;;;;;;20.86;46.05957;918.4981;;;;
2022/04/08 13:14:01;;;;;;;0.6;0.5;;;;;;;20.85;45.80078;918.2967;;;;
2022/04/08 13:16:38;;;;;;;1.1;0.5;;;;;;;19.96;48.22852;918.4161;;;;
2022/04/08 13:19:09;;;;;;;1.5;0.6;;;;;;;20.33;48.08398;918.4094;;;;
2022/04/08 13:21:34;;;;;;;1.1;0.6;;;;;;;19.81;47.65234;918.5087;;;;
2022/04/08 13:24:03;;;;;;;1.2;0.5;;;;;;;19.71;51.43164;918.3611;;;;
2022/04/08 13:26:28;;;;;;;0.6;0.5;;;;;;;19.96;48.00684;918.4081;;;;
2022/04/08 13:28:56;;;;;;;0.4;0.3;;;;;;;20.24;46.81152;918.3142;;;;
2022/04/08 13:31:21;;;;;;;1;0.4;;;;;;;20.22;49.84375;918.3681;;;;
2022/04/08 13:33:53;;;;;;;0.2;0.2;;;;;;;19.75;48.90625;918.3209;;;;
2022/04/08 13:36:17;;;;;;;0.5;0.4;;;;;;;19.72;48.28418;918.1968;;;;
2022/04/08 13:38:44;;;;;;;0.5;0.4;;;;;;;19.6;49.30859;918.2039;;;;
2022/04/08 13:41:13;;;;;;;0.6;0.5;;;;;;;19.37;48.80566;918.1827;;;;
2022/04/08 13:43:38;;;;;;;1.2;0.5;;;;;;;19.42;48.76367;918.1307;;;;
2022/04/08 13:46:10;;;;;;;2.2;0.6;;;;;;;19.31;52.31641;918.0535;;;;
2022/04/08 13:48:39;;;;;;;1.8;0.7;;;;;;;19.21;49.21875;918.0847;;;;
2022/04/08 13:51:05;;;;;;;1.6;0.6;;;;;;;19.34;49.65332;918.1212;;;;
2022/04/08 13:53:35;;;;;;;0.6;0.5;;;;;;;19.35;50.77148;918.1603;;;;
2022/04/08 13:56:05;;;;;;;1.1;0.8;;;;;;;19.34;48.6748;918.1367;;;;
2022/04/08 13:58:34;;;;;;;0.5;0.5;;;;;;;19.37;48.33984;918.0681;;;;
2022/04/08 14:00:59;;;;;;;0.7;0.4;;;;;;;19.19;48.33105;917.9448;;;;
2022/04/08 14:03:28;;;;;;;0.3;0.3;;;;;;;19.14;48.09277;917.9674;;;;
2022/04/08 14:05:57;;;;;;;0.5;0.3;;;;;;;19.28;48.11914;917.9141;;;;
2022/04/08 14:08:22;;;;;;;0.2;0.2;;;;;;;19.38;47.47754;917.7941;;;;
2022/04/08 14:10:50;;;;;;;2.8;0.5;;;;;;;19.29;48.2959;917.7271;;;;
2022/04/08 14:13:14;;;;;;;0.3;0.3;;;;;;;19.28;48.06152;917.7308;;;;
2022/04/08 14:15:42;;;;;;;0.7;0.3;;;;;;;18.99;50.81152;917.6824;;;;
2022/04/08 14:18:07;;;;;;;0.5;0.4;;;;;;;19.26;47.4541;917.5222;;;;
2022/04/08 14:20:38;;;;;;;0.7;0.5;;;;;;;19.29;47.77148;917.5151;;;;
2022/04/08 14:23:07;;;;;;;0.8;0.4;;;;;;;19.37;47.64063;917.5225;;;;
2022/04/08 14:25:38;;;;;;;1.1;0.7;;;;;;;19.15;51.50586;917.5405;;;;
2022/04/08 14:28:10;;;;;;;1.3;0.4;;;;;;;19.31;50.96582;917.5283;;;;
2022/04/08 14:30:34;;;;;;;0.9;0.5;;;;;;;19.45;50.36328;917.5633;;;;
2022/04/08 14:33:08;;;;;;;1.7;0.8;;;;;;;19.73;50.01074;917.5427;;;;
2022/04/08 14:35:33;;;;;;;0.6;0.2;;;;;;;19;47.62305;917.714;;;;
2022/04/08 14:38:01;;;;;;;2;0.5;;;;;;;19.06;49.00391;917.728;;;;
2022/04/08 14:40:35;;;;;;;0.6;0.5;;;;;;;19.5;49.55371;917.6376;;;;
2022/04/08 14:43:01;;;;;;;0.7;0.7;;;;;;;19.58;47.52344;917.6825;;;;
2022/04/08 14:45:28;;;;;;;1;0.5;;;;;;;19.55;51.36523;917.6694;;;;
2022/04/08 14:47:58;;;;;;;1.3;0.5;;;;;;;19.19;49.62402;917.5701;;;;
2022/04/08 14:50:28;;;;;;;2.3;0.7;;;;;;;18.68;51.63672;917.6692;;;;
2022/04/08 14:52:53;;;;;;;1.5;0.6;;;;;;;18.75;51.5625;917.5559;;;;
2022/04/08 14:55:25;;;;;;;1.7;0.4;;;;;;;18.8;49.45117;917.4586;;;;
2022/04/08 14:57:56;;;;;;;2.5;0.8;;;;;;;18.87;50.86816;917.3188;;;;
2022/04/08 15:00:30;;;;;;;1;0.4;;;;;;;18.69;51.24219;917.4106;;;;
2022/04/08 15:03:05;;;;;;;4.1;1.3;;;;;;;18.76;50.93652;917.3651;;;;
2022/04/08 15:05:38;;;;;;;1.5;0.7;;;;;;;18.75;53.31934;917.464;;;;
2022/04/08 15:08:05;;;;;;;1.1;1;;;;;;;18.42;51.11914;917.5432;;;;
2022/04/08 15:10:34;;;;;;;2.2;0.6;;;;;;;18.49;50.89355;917.5798;;;;
2022/04/08 15:13:00;;;;;;;1.6;0.6;;;;;;;18.48;51.11328;917.6191;;;;
2022/04/08 15:15:29;;;;;;;2;0.6;;;;;;;18.63;50.56152;917.5452;;;;
2022/04/08 15:18:04;;;;;;;1.7;0.6;;;;;;;18.78;50.52148;917.5684;;;;
2022/04/08 15:20:37;;;;;;;1;0.5;;;;;;;18.81;50.34961;917.6538;;;;
2022/04/08 15:23:06;;;;;;;1.2;0.5;;;;;;;18.78;50.21777;917.5823;;;;
2022/04/08 15:25:37;;;;;;;4.4;1.1;;;;;;;18.54;54.22559;917.697;;;;
2022/04/08 15:28:07;;;;;;;1.8;1.6;;;;;;;18.36;54.83105;917.6998;;;;
2022/04/08 15:30:31;;;;;;;2.4;1;;;;;;;18.28;52.10156;917.7873;;;;
2022/04/08 15:32:59;;;;;;;1.2;0.7;;;;;;;18.05;55.2002;917.8029;;;;
2022/04/08 15:35:25;;;;;;;1.4;1.3;;;;;;;18.18;55.66895;917.8936;;;;
2022/04/08 15:37:53;;;;;;;2.1;1.5;;;;;;;18.3;55.27734;917.8339;;;;
2022/04/08 15:40:18;;;;;;;4.3;3.1;;;;;;;18.34;54.39941;917.7606;;;;
2022/04/08 15:42:44;;;;;;;1.4;0.7;;;;;;;18.29;52.78906;917.8657;;;;
2022/04/08 15:45:16;;;;;;;2;0.6;;;;;;;18.19;52.25293;917.8588;;;;
2022/04/08 15:47:48;;;;;;;1;0.8;;;;;;;18.13;52.74609;917.9207;;;;
2022/04/08 15:50:20;;;;;;;1.9;0.8;;;;;;;18.09;52.4043;917.9662;;;;
2022/04/08 15:52:50;;;;;;;1.1;0.6;;;;;;;17.9;52.30078;917.8395;;;;
2022/04/08 15:55:18;;;;;;;1.4;0.7;;;;;;;17.34;52.84863;917.8649;;;;
2022/04/08 15:57:47;;;;;;;1.4;0.5;;;;;;;16.93;53.78418;917.8433;;;;
2022/04/08 16:01:49;;;;;;;0.6;0.5;;;;;;;16.93;50.44727;917.8608;;;;
2022/04/08 16:04:01;;;;;;;0.8;0.8;;;;;;;16.83;53.72559;918.0909;;;;
2022/04/08 16:06:32;;;;;;;11.6;7;;;;;;;16.62;50.21484;918.4525;;;;
2022/04/08 16:08:57;;;;;;;2.6;1.8;;;;;;;16.64;53.95703;918.6342;;;;
2022/04/08 16:11:24;;;;;;;1.3;0.8;;;;;;;16.71;50.38672;918.7759;;;;
2022/04/08 16:13:49;;;;;;;0.4;0.4;;;;;;;16.5;50.47754;919.0709;;;;
2022/04/08 16:16:20;;;;;;;0.6;0.3;;;;;;;16.16;48.46191;919.1854;;;;
2022/04/08 16:18:48;;;;;;;0.1;0.1;;;;;;;15.73;53.49805;919.3207;;;;
2022/04/08 16:21:14;;;;;;;0.2;0.2;;;;;;;15.62;52.67676;919.8947;;;;
2022/04/08 16:23:39;;;;;;;0.4;0.4;;;;;;;15.43;56.64844;920.1367;;;;
2022/04/08 16:26:05;;;;;;;1.1;0.6;;;;;;;14.91;61.79492;919.7056;;;;
2022/04/08 16:28:42;;;;;;;0.2;0.2;;;;;;;14.81;61.41211;919.4651;;;;
2022/04/08 16:31:44;;;;;;;0.9;0.3;;;;;;;14.47;61.34082;919.8361;;;;
2022/04/08 16:34:08;;;;;;;1.3;1.1;;;;;;;13.14;71.44434;919.4105;;;;
2022/04/08 16:36:33;;;;;;;1;0.7;;;;;;;13.18;72.24414;919.4972;;;;
2022/04/08 16:38:58;;;;;;;0.7;0.7;;;;;;;13.18;68.6377;919.3198;;;;
2022/04/08 16:41:30;;;;;;;0.7;0.6;;;;;;;13.14;68.30859;919.1459;;;;
2022/04/08 16:44:01;;;;;;;1.5;1.3;;;;;;;13.39;70.10645;918.9938;;;;
2022/04/08 16:46:26;;;;;;;1.3;1.2;;;;;;;13.27;73.53516;918.8865;;;;
2022/04/08 16:48:56;;;;;;;0.5;0.5;;;;;;;13.32;74.17578;918.7594;;;;
2022/04/08 16:51:29;;;;;;;0.4;0.4;;;;;;;13.65;70.89746;918.7681;;;;
2022/04/08 16:53:54;;;;;;;0.4;0.4;;;;;;;13.68;70.25781;918.7063;;;;
2022/04/08 16:56:49;;;;;;;0.3;0.3;;;;;;;13.58;71.49512;918.7871;;;;
2022/04/08 16:59:17;;;;;;;1.3;0.5;;;;;;;13.51;71.97754;918.9565;;;;
2022/04/08 17:01:43;;;;;;;0.6;0.4;;;;;;;13.57;72.48145;918.9698;;;;
2022/04/08 17:04:08;;;;;;;0.5;0.5;;;;;;;13.6;72.33789;919.0007;;;;
2022/04/08 17:06:33;;;;;;;1.4;0.4;;;;;;;13.59;72.84082;919.1442;;;;
2022/04/08 17:09:06;;;;;;;0.7;0.4;;;;;;;13.71;72.9082;919.162;;;;
2022/04/08 17:11:38;;;;;;;0.9;0.5;;;;;;;13.81;71.75;919.1789;;;;
2022/04/08 17:14:03;;;;;;;3.1;2.4;;;;;;;13.55;74.84668;919.2463;;;;
2022/04/08 17:16:33;;;;;;;12.4;11.3;;;;;;;13.48;76.61719;919.4116;;;;
2022/04/08 17:18:58;;;;;;;1.3;1.2;;;;;;;13.59;75.64648;919.4545;;;;
2022/04/08 17:21:29;;;;;;;1.7;1.2;;;;;;;13.46;76.87695;919.605;;;;
2022/04/08 17:23:54;;;;;;;1.1;0.9;;;;;;;13.31;74.2666;919.348;;;;
2022/04/08 17:26:23;;;;;;;0.6;0.6;;;;;;;12.98;75.74805;919.3014;;;;
2022/04/08 17:28:54;;;;;;;0.9;0.7;;;;;;;12.91;75.93164;919.4975;;;;
2022/04/08 17:31:24;;;;;;;1.4;0.9;;;;;;;12.78;74.46191;919.7535;;;;
2022/04/08 17:33:49;;;;;;;1.3;0.8;;;;;;;12.66;75.10742;919.9653;;;;
2022/04/08 17:36:18;;;;;;;6.2;2.1;;;;;;;12.68;76.86426;919.985;;;;
2022/04/08 17:38:43;;;;;;;10.7;6.6;;;;;;;12.57;77.95996;919.6779;;;;
2022/04/08 17:41:12;;;;;;;2.5;2.2;;;;;;;12.53;77.63086;919.5999;;;;
2022/04/08 17:43:37;;;;;;;3.5;1.6;;;;;;;12.58;78.55762;919.8068;;;;
2022/04/08 17:46:07;;;;;;;1.8;1.7;;;;;;;12.58;77.39941;919.8738;;;;
2022/04/08 17:48:37;;;;;;;2.1;1.8;;;;;;;12.63;77.78613;919.7378;;;;
2022/04/08 17:51:02;;;;;;;1.5;0.9;;;;;;;12.4;75.28027;919.6535;;;;
2022/04/08 17:53:29;;;;;;;1.1;1;;;;;;;12.04;75.0459;919.5377;;;;
2022/04/08 17:55:53;;;;;;;1;0.9;;;;;;;11.83;76.91113;919.4394;;;;
2022/04/08 17:58:22;;;;;;;1.9;0.9;;;;;;;11.74;76.80176;919.4785;;;;
2022/04/08 18:00:46;;;;;;;1.6;1.2;;;;;;;11.83;78.51367;919.4394;;;;
2022/04/08 18:03:11;;;;;;;1.6;1.3;;;;;;;11.81;81.83008;919.4603;;;;
2022/04/08 18:05:41;;;;;;;1;0.8;;;;;;;11.68;81.89746;919.4354;;;;
2022/04/08 18:08:10;;;;;;;1;0.8;;;;;;;11.59;81.20703;919.3041;;;;
2022/04/08 18:10:35;;;;;;;0.9;0.8;;;;;;;11.47;81.58203;919.2476;;;;
2022/04/08 18:13:03;;;;;;;1.4;1.3;;;;;;;11.4;82.72559;919.2991;;;;
2022/04/08 18:15:31;;;;;;;3.4;1.8;;;;;;;11.2;84.02441;919.3069;;;;
2022/04/08 18:17:57;;;;;;;2.2;1.5;;;;;;;;;;;;;
2022/04/08 18:20:22;;;;;;;1.3;1.1;;;;;;;;;;;;;
2022/04/08 18:22:48;;;;;;;1.4;1.3;;;;;;;;;;;;;
2022/04/08 18:25:13;;;;;;;2.8;1.7;;;;;;;;;;;;;
2022/04/08 18:27:39;;;;;;;3.8;2.9;;;;;;;;;;;;;
2022/04/08 18:30:04;;;;;;;3.9;2;;;;;;;;;;;;;
2022/04/08 18:32:33;;;;;;;1.7;1.2;;;;;;;;;;;;;
2022/04/08 18:34:58;;;;;;;2.3;1.7;;;;;;;;;;;;;
2022/04/08 18:37:23;;;;;;;2.3;1.5;;;;;;;;;;;;;
2022/04/08 18:39:49;;;;;;;3.7;2.2;;;;;;;;;;;;;
2022/04/08 18:42:14;;;;;;;2.6;1.8;;;;;;;;;;;;;
2022/04/08 18:44:39;;;;;;;1.2;1.1;;;;;;;;;;;;;
2022/04/08 18:47:06;;;;;;;2;1.5;;;;;;;;;;;;;
2022/04/08 18:49:32;;;;;;;1.3;1.2;;;;;;;;;;;;;
2022/04/08 18:51:57;;;;;;;1.2;1.1;;;;;;;;;;;;;
2022/04/08 18:54:22;;;;;;;1.5;1.1;;;;;;;;;;;;;
2022/04/08 18:56:48;;;;;;;0.8;0.8;;;;;;;;;;;;;
2022/04/08 18:59:13;;;;;;;1.9;0.7;;;;;;;;;;;;;
2022/04/08 19:01:40;;;;;;;0.7;0.5;;;;;;;;;;;;;
2022/04/08 19:04:05;;;;;;;1.2;0.8;;;;;;;;;;;;;
2022/04/08 19:06:31;;;;;;;1.8;1.3;;;;;;;;;;;;;
2022/04/08 19:08:56;;;;;;;4.7;3.5;;;;;;;;;;;;;
2022/04/08 19:11:23;;;;;;;5;4.1;;;;;;;;;;;;;
2022/04/08 19:13:50;;;;;;;4.7;4;;;;;;;;;;;;;
2022/04/08 19:16:14;;;;;;;3.2;2.6;;;;;;;;;;;;;
2022/04/08 19:18:41;;;;;;;3.1;2.4;;;;;;;;;;;;;
2022/04/08 19:21:06;;;;;;;3.6;2.8;;;;;;;;;;;;;
2022/04/08 19:23:31;;;;;;;2.4;2.2;;;;;;;;;;;;;
2022/04/08 19:25:57;;;;;;;4.4;3.4;;;;;;;;;;;;;
2022/04/08 19:28:22;;;;;;;6;3.8;;;;;;;;;;;;;
2022/04/08 19:30:48;;;;;;;6.6;4.3;;;;;;;;;;;;;
2022/04/08 19:33:13;;;;;;;18.5;11.9;;;;;;;;;;;;;
2022/04/08 19:35:41;;;;;;;12.5;7.8;;;;;;;;;;;;;
2022/04/08 19:38:07;;;;;;;9.4;5.9;;;;;;;;;;;;;
2022/04/08 19:40:33;;;;;;;5.1;3.7;;;;;;;;;;;;;
2022/04/08 19:42:58;;;;;;;2.5;1.9;;;;;;;;;;;;;
2022/04/08 19:45:25;;;;;;;5;4.1;;;;;;;;;;;;;
2022/04/08 19:47:50;;;;;;;5.8;4.1;;;;;;;;;;;;;
2022/04/08 19:50:17;;;;;;;4;3.2;;;;;;;;;;;;;
2022/04/08 19:52:42;;;;;;;10.7;7.6;;;;;;;;;;;;;
2022/04/08 19:55:11;;;;;;;18.3;11.7;;;;;;;;;;;;;
2022/04/08 19:57:38;;;;;;;9.1;6.5;;;;;;;;;;;;;
2022/04/08 20:00:03;;;;;;;3;2;;;;;;;;;;;;;
2022/04/08 20:02:33;;;;;;;2.5;2.1;;;;;;;;;;;;;
2022/04/08 20:04:58;;;;;;;1.6;1.4;;;;;;;;;;;;;
2022/04/08 20:07:23;;;;;;;2.9;1.5;;;;;;;;;;;;;
2022/04/08 20:09:51;;;;;;;3.1;1.7;;;;;;;;;;;;;
2022/04/08 20:12:17;;;;;;;2.3;1.8;;;;;;;;;;;;;
2022/04/08 20:14:43;;;;;;;2.2;1.8;;;;;;;;;;;;;
2022/04/08 20:17:09;;;;;;;2.6;1.7;;;;;;;;;;;;;
2022/04/08 20:19:35;;;;;;;1.7;1.5;;;;;;;;;;;;;
2022/04/08 20:22:00;;;;;;;3.8;2.2;;;;;;;;;;;;;
2022/04/08 20:24:27;;;;;;;3.5;2.2;;;;;;;;;;;;;
2022/04/08 20:26:52;;;;;;;3.1;1.8;;;;;;;;;;;;;
2022/04/08 20:29:21;;;;;;;1.5;1.4;;;;;;;;;;;;;
2022/04/08 20:31:44;;;;;;;2;1.5;;;;;;;;;;;;;
2022/04/08 20:34:10;;;;;;;3;1.9;;;;;;;;;;;;;
2022/04/08 20:36:35;;;;;;;2.9;2;;;;;;;;;;;;;
2022/04/08 20:39:02;;;;;;;4.9;2.6;;;;;;;;;;;;;
2022/04/08 20:41:27;;;;;;;2.5;1.7;;;;;;;;;;;;;
2022/04/08 20:43:52;;;;;;;2.1;1.5;;;;;;;;;;;;;
2022/04/08 20:46:17;;;;;;;1.9;1.6;;;;;;;;;;;;;
2022/04/08 20:48:43;;;;;;;2.1;1.9;;;;;;;;;;;;;
2022/04/08 20:51:10;;;;;;;3.6;2.6;;;;;;;;;;;;;
2022/04/08 20:53:36;;;;;;;2.4;2.1;;;;;;;;;;;;;
2022/04/08 20:56:02;;;;;;;2.8;2.3;;;;;;;;;;;;;
2022/04/08 20:58:33;;;;;;;5.5;3.3;;;;;;;;;;;;;
2022/04/08 21:00:52;;;;;;;6.6;3.9;;;;;;;;;;;;;
2022/04/08 21:03:20;;;;;;;9;4;;;;;;;;;;;;;
2022/04/08 21:05:45;;;;;;;13.3;7.2;;;;;;;;;;;;;
2022/04/08 21:08:10;;;;;;;6.4;4;;;;;;;;;;;;;
2022/04/08 21:10:36;;;;;;;5.3;3.2;;;;;;;;;;;;;
2022/04/08 21:13:01;;;;;;;2.3;2.1;;;;;;;;;;;;;
2022/04/08 21:15:27;;;;;;;3.6;2.5;;;;;;;;;;;;;
2022/04/08 21:17:54;;;;;;;7.4;4.8;;;;;;;;;;;;;
2022/04/08 21:20:19;;;;;;;6;4;;;;;;;;;;;;;
2022/04/08 21:22:44;;;;;;;3.9;3.2;;;;;;;;;;;;;
2022/04/08 21:25:10;;;;;;;3.5;2.9;;;;;;;;;;;;;
2022/04/08 21:27:35;;;;;;;3.9;2.9;;;;;;;;;;;;;
2022/04/08 21:30:00;;;;;;;3.1;2.1;;;;;;;;;;;;;
2022/04/08 21:32:27;;;;;;;2.1;1.9;;;;;;;;;;;;;
2022/04/08 21:34:52;;;;;;;3.4;2.5;;;;;;;;;;;;;
2022/04/08 21:37:18;;;;;;;2.5;1.7;;;;;;;;;;;;;
2022/04/08 21:39:43;;;;;;;1.6;1.5;;;;;;;;;;;;;
2022/04/08 21:42:09;;;;;;;2;1.4;;;;;;;;;;;;;
2022/04/08 21:44:34;;;;;;;4.5;2.1;;;;;;;;;;;;;
2022/04/08 21:46:59;;;;;;;10.1;5;;;;;;;;;;;;;
2022/04/08 21:49:33;;;;;;;14.4;6.2;;;;;;;;;;;;;
2022/04/08 21:52:00;;;;;;;6.4;3.7;;;;;;;;;;;;;
2022/04/08 21:54:25;;;;;;;3.2;2.7;;;;;;;;;;;;;
2022/04/08 21:56:52;;;;;;;2;1.8;;;;;;;;;;;;;
2022/04/08 21:59:17;;;;;;;1.3;1.2;;;;;;;;;;;;;
2022/04/08 22:01:44;;;;;;;2.3;1.2;;;;;;;;;;;;;
2022/04/08 22:04:09;;;;;;;1.5;1.1;;;;;;;;;;;;;
2022/04/08 22:06:36;;;;;;;1.8;1.2;;;;;;;;;;;;;
2022/04/08 22:09:02;;;;;;;1.5;0.8;;;;;;;;;;;;;
2022/04/08 22:11:29;;;;;;;1.1;1;;;;;;;;;;;;;
2022/04/08 22:13:54;;;;;;;0.7;0.7;;;;;;;;;;;;;
2022/04/08 22:16:20;;;;;;;1.5;1;;;;;;;;;;;;;
2022/04/08 22:18:49;;;;;;;0.9;0.8;;;;;;;;;;;;;
2022/04/08 22:21:10;;;;;;;1.8;1;;;;;;;;;;;;;
2022/04/08 22:23:36;;;;;;;2;1.5;;;;;;;;;;;;;
2022/04/08 22:26:01;;;;;;;3;2.2;;;;;;;;;;;;;
2022/04/08 22:28:28;;;;;;;3.4;2.3;;;;;;;;;;;;;
2022/04/08 22:30:53;;;;;;;3.1;2.5;;;;;;;;;;;;;
2022/04/08 22:33:18;;;;;;;3.5;2.3;;;;;;;;;;;;;
2022/04/08 22:35:44;;;;;;;3;2.2;;;;;;;;;;;;;
2022/04/08 22:38:09;;;;;;;3.3;2.4;;;;;;;;;;;;;
2022/04/08 22:40:34;;;;;;;2.2;2;;;;;;;;;;;;;
2022/04/08 22:43:00;;;;;;;2.6;2;;;;;;;;;;;;;
2022/04/08 22:45:25;;;;;;;2.8;2;;;;;;;;;;;;;
2022/04/08 22:47:50;;;;;;;3.8;2.6;;;;;;;;;;;;;
2022/04/08 22:50:18;;;;;;;5.5;3.1;;;;;;;;;;;;;
2022/04/08 22:52:43;;;;;;;3.2;1.7;;;;;;;;;;;;;
2022/04/08 22:55:09;;;;;;;1.6;1.5;;;;;;;;;;;;;
2022/04/08 22:57:35;;;;;;;1.5;1.4;;;;;;;;;;;;;
2022/04/08 22:59:59;;;;;;;3.5;1.8;;;;;;;;;;;;;
2022/04/08 23:02:27;;;;;;;2.4;1.5;;;;;;;;;;;;;
2022/04/08 23:04:53;;;;;;;1.9;1.3;;;;;;;;;;;;;
2022/04/08 23:07:19;;;;;;;2.2;1.6;;;;;;;;;;;;;
2022/04/08 23:09:52;;;;;;;1.6;1.4;;;;;;;;;;;;;
2022/04/08 23:12:23;;;;;;;1.5;1.4;;;;;;;;;;;;;
2022/04/08 23:14:58;;;;;;;2.1;1.3;;;;;;;;;;;;;
2022/04/08 23:17:26;;;;;;;2.2;1.7;;;;;;;;;;;;;
2022/04/08 23:19:52;;;;;;;2.6;1.6;;;;;;;;;;;;;
2022/04/08 23:22:17;;;;;;;2;1.8;;;;;;;;;;;;;
2022/04/08 23:24:45;;;;;;;1.8;1.7;;;;;;;;;;;;;
2022/04/08 23:27:10;;;;;;;1.8;1.4;;;;;;;;;;;;;
2022/04/08 23:29:37;;;;;;;3.3;1.5;;;;;;;;;;;;;
2022/04/08 23:32:02;;;;;;;1.6;1.3;;;;;;;;;;;;;
2022/04/08 23:34:36;;;;;;;2.1;1.7;;;;;;;;;;;;;
2022/04/08 23:37:01;;;;;;;1.9;1.6;;;;;;;;;;;;;
2022/04/08 23:39:26;;;;;;;1.4;1.3;;;;;;;;;;;;;
2022/04/08 23:42:00;;;;;;;1.7;0.9;;;;;;;;;;;;;
2022/04/08 23:44:32;;;;;;;1.3;1.2;;;;;;;;;;;;;
2022/04/08 23:47:03;;;;;;;1.3;1.2;;;;;;;;;;;;;
2022/04/08 23:49:35;;;;;;;1.1;0.8;;;;;;;;;;;;;
2022/04/08 23:52:10;;;;;;;1.1;1;;;;;;;;;;;;;
2022/04/08 23:54:37;;;;;;;0.9;0.9;;;;;;;;;;;;;
2022/04/08 23:57:02;;;;;;;1.6;0.8;;;;;;;;;;;;;
2022/04/08 23:59:28;;;;;;;1.4;0.9;;;;;;;;;;;;;
